createdAt,value
2018-10-06T00:00:25.875Z,94.2
2018-10-06T00:01:27.261Z,94.1
2018-10-06T00:02:28.656Z,94.4
2018-10-06T00:03:30.046Z,94.2
2018-10-06T00:04:31.434Z,94.3
2018-10-06T00:05:32.824Z,94.1
2018-10-06T00:06:34.213Z,94.2
2018-10-06T00:07:35.601Z,94.4
2018-10-06T00:08:36.989Z,94.2
2018-10-06T00:09:38.708Z,94.2
2018-10-06T00:10:40.073Z,94.4
2018-10-06T00:11:41.448Z,94.4
2018-10-06T00:12:42.834Z,94.2
2018-10-06T00:13:44.227Z,94.6
2018-10-06T00:14:45.616Z,94.1
2018-10-06T00:15:47.007Z,94.1
2018-10-06T00:16:48.400Z,94.1
2018-10-06T00:17:49.831Z,93.8
2018-10-06T00:18:51.180Z,94.2
2018-10-06T00:19:52.569Z,94.7
2018-10-06T00:20:54.488Z,94.4
2018-10-06T00:21:55.876Z,95.1
2018-10-06T00:22:57.267Z,94.5
2018-10-06T00:23:58.668Z,94.2
2018-10-06T00:25:00.163Z,95.1
2018-10-06T00:26:01.578Z,94.8
2018-10-06T00:27:02.966Z,94.9
2018-10-06T00:28:04.355Z,95.0
2018-10-06T00:29:05.745Z,95.4
2018-10-06T00:30:07.136Z,95.6
2018-10-06T00:31:08.521Z,94.8
2018-10-06T00:32:09.911Z,94.9
2018-10-06T00:33:11.302Z,95.1
2018-10-06T00:34:12.695Z,94.8
2018-10-06T00:35:14.085Z,95.2
2018-10-06T00:36:15.470Z,94.9
2018-10-06T00:37:16.861Z,95.5
2018-10-06T00:38:18.254Z,95.2
2018-10-06T00:39:19.644Z,94.9
2018-10-06T00:40:21.035Z,95.2
2018-10-06T00:41:22.421Z,95.2
2018-10-06T00:42:23.811Z,95.0
2018-10-06T00:43:25.198Z,95.0
2018-10-06T00:44:26.590Z,95.3
2018-10-06T00:45:27.977Z,95.0
2018-10-06T00:46:29.369Z,95.3
2018-10-06T00:47:31.282Z,95.6
2018-10-06T00:48:32.670Z,95.0
2018-10-06T00:49:34.060Z,95.2
2018-10-06T00:50:35.450Z,95.4
2018-10-06T00:51:36.839Z,95.1
2018-10-06T00:52:38.227Z,95.1
2018-10-06T00:53:39.617Z,95.1
2018-10-06T00:54:41.008Z,95.0
2018-10-06T00:55:42.396Z,94.7
2018-10-06T00:56:43.781Z,94.9
2018-10-06T00:57:58.347Z,94.2
2018-10-06T00:58:59.734Z,94.7
2018-10-06T01:00:01.124Z,95.4
2018-10-06T01:01:02.513Z,95.4
2018-10-06T01:02:03.907Z,95.7
2018-10-06T01:03:05.294Z,95.2
2018-10-06T01:04:06.681Z,95.3
2018-10-06T01:05:08.073Z,95.9
2018-10-06T01:06:09.469Z,96.0
2018-10-06T01:07:10.852Z,95.7
2018-10-06T01:08:12.268Z,96.6
2018-10-06T01:09:13.656Z,96.5
2018-10-06T01:10:15.038Z,96.6
2018-10-06T01:11:16.425Z,96.9
2018-10-06T01:12:17.814Z,96.6
2018-10-06T01:13:19.203Z,96.1
2018-10-06T01:14:20.595Z,96.3
2018-10-06T01:15:21.983Z,96.0
2018-10-06T01:16:23.368Z,96.6
2018-10-06T01:17:24.753Z,96.6
2018-10-06T01:18:26.139Z,96.6
2018-10-06T01:19:27.527Z,96.2
2018-10-06T01:20:28.912Z,96.4
2018-10-06T01:21:30.299Z,96.4
2018-10-06T01:22:31.687Z,96.7
2018-10-06T01:23:33.074Z,96.7
2018-10-06T01:24:34.464Z,96.3
2018-10-06T01:25:35.847Z,96.3
2018-10-06T01:26:37.244Z,96.9
2018-10-06T01:27:38.627Z,95.8
2018-10-06T01:28:40.021Z,96.2
2018-10-06T01:29:41.408Z,96.5
2018-10-06T01:30:42.794Z,95.9
2018-10-06T01:31:44.184Z,96.4
2018-10-06T01:32:45.567Z,96.5
2018-10-06T01:33:46.954Z,96.4
2018-10-06T01:34:48.340Z,96.9
2018-10-06T01:35:49.731Z,96.2
2018-10-06T01:36:51.112Z,96.5
2018-10-06T01:37:52.500Z,96.8
2018-10-06T01:38:53.889Z,97.5
2018-10-06T01:39:55.277Z,96.9
2018-10-06T01:40:56.663Z,96.6
2018-10-06T01:41:58.050Z,96.5
2018-10-06T01:42:59.534Z,96.7
2018-10-06T01:44:00.953Z,96.6
2018-10-06T01:45:02.338Z,96.7
2018-10-06T01:46:03.728Z,96.0
2018-10-06T01:47:05.117Z,96.1
2018-10-06T01:48:06.508Z,97.0
2018-10-06T01:49:07.891Z,96.3
2018-10-06T01:50:09.280Z,96.5
2018-10-06T01:51:10.712Z,96.5
2018-10-06T01:52:12.063Z,96.9
2018-10-06T01:53:13.450Z,96.1
2018-10-06T01:54:14.838Z,96.2
2018-10-06T01:55:16.226Z,96.6
2018-10-06T01:56:17.612Z,97.0
2018-10-06T01:57:19.003Z,96.7
2018-10-06T01:58:20.391Z,96.7
2018-10-06T01:59:21.778Z,96.5
2018-10-06T02:00:23.163Z,96.2
2018-10-06T02:01:24.548Z,96.2
2018-10-06T02:02:25.936Z,95.9
2018-10-06T02:03:27.332Z,96.6
2018-10-06T02:04:28.717Z,95.8
2018-10-06T02:05:30.112Z,96.3
2018-10-06T02:06:31.502Z,96.6
2018-10-06T02:07:32.885Z,96.9
2018-10-06T02:08:34.269Z,96.4
2018-10-06T02:09:35.684Z,96.7
2018-10-06T02:10:37.048Z,95.7
2018-10-06T02:11:38.434Z,96.3
2018-10-06T02:12:39.825Z,96.0
2018-10-06T02:13:41.211Z,96.7
2018-10-06T02:14:42.600Z,95.8
2018-10-06T02:15:43.984Z,96.3
2018-10-06T02:16:45.381Z,96.4
2018-10-06T02:17:46.761Z,96.9
2018-10-06T02:18:48.157Z,97.1
2018-10-06T02:19:49.542Z,97.5
2018-10-06T02:20:50.930Z,97.4
2018-10-06T02:21:52.320Z,97.3
2018-10-06T02:22:53.700Z,97.2
2018-10-06T02:23:55.099Z,96.9
2018-10-06T02:24:56.486Z,97.8
2018-10-06T02:25:57.875Z,97.8
2018-10-06T02:26:59.266Z,97.7
2018-10-06T02:28:00.652Z,97.0
2018-10-06T02:29:02.036Z,97.3
2018-10-06T02:30:03.469Z,96.8
2018-10-06T02:31:04.812Z,97.3
2018-10-06T02:32:06.200Z,97.5
2018-10-06T02:33:07.678Z,97.5
2018-10-06T02:34:09.827Z,97.1
2018-10-06T02:35:11.157Z,97.8
2018-10-06T02:36:12.542Z,97.8
2018-10-06T02:37:13.929Z,98.0
2018-10-06T02:38:15.316Z,97.1
2018-10-06T02:39:16.705Z,97.4
2018-10-06T02:40:18.092Z,97.0
2018-10-06T02:41:19.482Z,97.0
2018-10-06T02:42:20.871Z,97.0
2018-10-06T02:43:22.259Z,97.2
2018-10-06T02:44:23.644Z,97.4
2018-10-06T02:45:25.031Z,97.8
2018-10-06T02:46:26.424Z,97.3
2018-10-06T02:47:27.815Z,97.1
2018-10-06T02:48:29.206Z,97.0
2018-10-06T02:49:30.592Z,97.7
2018-10-06T02:50:31.984Z,96.9
2018-10-06T02:51:33.372Z,97.1
2018-10-06T02:52:34.758Z,97.8
2018-10-06T02:53:36.145Z,97.0
2018-10-06T02:54:37.537Z,97.1
2018-10-06T02:55:38.921Z,97.1
2018-10-06T02:56:40.306Z,97.7
2018-10-06T02:57:41.693Z,97.8
2018-10-06T02:58:43.080Z,97.9
2018-10-06T02:59:44.467Z,97.8
2018-10-06T03:00:45.855Z,97.8
2018-10-06T03:01:47.242Z,98.2
2018-10-06T03:02:48.633Z,98.6
2018-10-06T03:03:50.025Z,98.0
2018-10-06T03:04:51.412Z,98.7
2018-10-06T03:05:52.797Z,98.3
2018-10-06T03:06:54.183Z,98.7
2018-10-06T03:07:55.569Z,98.0
2018-10-06T03:08:56.959Z,98.2
2018-10-06T03:09:58.342Z,98.3
2018-10-06T03:10:59.730Z,98.3
2018-10-06T03:12:01.111Z,98.2
2018-10-06T03:13:02.498Z,98.3
2018-10-06T03:14:03.881Z,98.2
2018-10-06T03:15:05.274Z,97.8
2018-10-06T03:16:06.659Z,97.8
2018-10-06T03:17:08.047Z,97.7
2018-10-06T03:18:09.429Z,97.5
2018-10-06T03:19:10.817Z,97.1
2018-10-06T03:20:12.202Z,97.6
2018-10-06T03:21:13.589Z,96.9
2018-10-06T03:22:15.009Z,97.1
2018-10-06T03:23:16.546Z,97.4
2018-10-06T03:24:17.938Z,97.1
2018-10-06T03:25:19.323Z,97.5
2018-10-06T03:26:20.709Z,96.9
2018-10-06T03:27:22.093Z,96.6
2018-10-06T03:28:23.485Z,96.7
2018-10-06T03:29:24.868Z,96.9
2018-10-06T03:30:26.260Z,97.0
2018-10-06T03:31:27.652Z,97.1
2018-10-06T03:32:29.039Z,96.9
2018-10-06T03:33:30.424Z,97.3
2018-10-06T03:34:31.814Z,97.2
2018-10-06T03:35:33.204Z,97.8
2018-10-06T03:36:34.591Z,97.3
2018-10-06T03:37:35.981Z,97.3
2018-10-06T03:38:37.369Z,98.0
2018-10-06T03:39:38.754Z,97.7
2018-10-06T03:40:40.146Z,97.8
2018-10-06T03:41:41.532Z,97.5
2018-10-06T03:42:42.922Z,97.8
2018-10-06T03:43:44.307Z,98.2
2018-10-06T03:44:45.697Z,98.0
2018-10-06T03:45:47.091Z,98.2
2018-10-06T03:46:49.494Z,98.7
2018-10-06T03:47:50.876Z,99.1
2018-10-06T03:48:52.269Z,99.2
2018-10-06T03:49:53.653Z,98.6
2018-10-06T03:50:55.044Z,98.5
2018-10-06T03:51:56.431Z,98.8
2018-10-06T03:52:57.818Z,99.3
2018-10-06T03:53:59.231Z,98.4
2018-10-06T03:55:00.591Z,98.4
2018-10-06T03:56:01.983Z,98.0
2018-10-06T03:57:03.367Z,98.3
2018-10-06T03:58:04.756Z,98.5
2018-10-06T03:59:06.143Z,98.5
2018-10-06T04:00:07.535Z,98.3
2018-10-06T04:01:08.917Z,98.4
2018-10-06T04:02:10.300Z,98.0
2018-10-06T04:03:11.686Z,98.7
2018-10-06T04:04:13.073Z,98.7
2018-10-06T04:05:14.455Z,99.0
2018-10-06T04:06:15.843Z,99.0
2018-10-06T04:07:17.239Z,99.0
2018-10-06T04:08:18.623Z,99.2
2018-10-06T04:09:20.014Z,99.2
2018-10-06T04:10:21.401Z,98.9
2018-10-06T04:11:22.859Z,99.1
2018-10-06T04:12:24.292Z,99.2
2018-10-06T04:13:25.675Z,99.2
2018-10-06T04:14:27.065Z,99.2
2018-10-06T04:15:29.036Z,99.1
2018-10-06T04:16:31.230Z,99.4
2018-10-06T04:17:32.616Z,99.2
2018-10-06T04:18:34.008Z,98.9
2018-10-06T04:19:35.396Z,98.9
2018-10-06T04:20:36.789Z,99.3
2018-10-06T04:21:38.175Z,99.0
2018-10-06T04:22:39.564Z,99.2
2018-10-06T04:23:40.952Z,98.9
2018-10-06T04:24:42.340Z,99.1
2018-10-06T04:25:43.724Z,98.9
2018-10-06T04:26:45.114Z,99.1
2018-10-06T04:27:46.499Z,99.3
2018-10-06T04:28:47.886Z,99.3
2018-10-06T04:29:49.275Z,99.3
2018-10-06T04:30:50.661Z,98.9
2018-10-06T04:31:52.050Z,98.8
2018-10-06T04:32:53.436Z,98.8
2018-10-06T04:33:54.829Z,99.1
2018-10-06T04:34:56.219Z,99.3
2018-10-06T04:35:57.609Z,99.1
2018-10-06T04:36:58.997Z,99.4
2018-10-06T04:38:00.382Z,99.2
2018-10-06T04:39:01.769Z,99.3
2018-10-06T04:40:03.158Z,99.1
2018-10-06T04:41:04.549Z,99.2
2018-10-06T04:42:05.935Z,99.2
2018-10-06T04:43:07.323Z,99.2
2018-10-06T04:44:08.713Z,99.1
2018-10-06T04:45:10.099Z,99.2
2018-10-06T04:46:11.489Z,99.0
2018-10-06T04:47:12.876Z,99.5
2018-10-06T04:48:14.264Z,99.3
2018-10-06T04:49:15.653Z,99.6
2018-10-06T04:50:17.047Z,99.8
2018-10-06T04:51:18.433Z,99.9
2018-10-06T04:52:19.819Z,99.8
2018-10-06T04:53:21.209Z,100.0
2018-10-06T04:54:22.599Z,100.0
2018-10-06T04:55:23.988Z,100.0
2018-10-06T04:56:25.373Z,100.0
2018-10-06T04:57:26.765Z,100.0
2018-10-06T04:58:28.155Z,100.0
2018-10-06T04:59:29.633Z,100.0
2018-10-06T05:00:31.045Z,100.0
2018-10-06T05:01:32.447Z,100.0
2018-10-06T05:02:33.839Z,100.0
2018-10-06T05:03:35.232Z,100.0
2018-10-06T05:04:36.624Z,100.0
2018-10-06T05:05:38.016Z,100.0
2018-10-06T05:06:39.402Z,100.0
2018-10-06T05:07:40.792Z,100.0
2018-10-06T05:08:42.179Z,100.0
2018-10-06T05:09:43.569Z,100.0
2018-10-06T05:10:45.894Z,100.0
2018-10-06T05:11:46.317Z,100.0
2018-10-06T05:12:47.704Z,100.0
2018-10-06T05:13:49.093Z,100.0
2018-10-06T05:14:50.479Z,100.0
2018-10-06T05:15:51.868Z,100.0
2018-10-06T05:16:53.263Z,100.0
2018-10-06T05:17:54.641Z,100.0
2018-10-06T05:18:56.032Z,100.0
2018-10-06T05:19:57.418Z,100.0
2018-10-06T05:20:58.804Z,100.0
2018-10-06T05:22:00.199Z,100.0
2018-10-06T05:23:01.592Z,100.0
2018-10-06T05:24:02.979Z,100.0
2018-10-06T05:25:04.369Z,100.0
2018-10-06T05:26:05.760Z,100.0
2018-10-06T05:27:07.146Z,99.8
2018-10-06T05:28:08.530Z,100.0
2018-10-06T05:29:09.920Z,100.0
2018-10-06T05:30:11.310Z,100.0
2018-10-06T05:31:12.700Z,100.0
2018-10-06T05:32:14.091Z,99.8
2018-10-06T05:33:15.503Z,99.9
2018-10-06T05:34:17.014Z,99.8
2018-10-06T05:35:18.635Z,99.8
2018-10-06T05:36:20.020Z,99.5
2018-10-06T05:37:21.407Z,99.9
2018-10-06T05:38:22.794Z,100.0
2018-10-06T05:39:24.190Z,99.8
2018-10-06T05:40:26.417Z,100.0
2018-10-06T05:41:27.802Z,100.0
2018-10-06T05:42:29.194Z,100.0
2018-10-06T05:43:30.585Z,99.9
2018-10-06T05:44:31.970Z,99.9
2018-10-06T05:45:33.362Z,100.0
2018-10-06T05:46:34.825Z,100.0
2018-10-06T05:47:36.187Z,99.8
2018-10-06T05:48:37.607Z,99.2
2018-10-06T05:49:38.992Z,99.4
2018-10-06T05:50:40.379Z,99.9
2018-10-06T05:51:41.772Z,99.8
2018-10-06T05:52:43.156Z,99.6
2018-10-06T05:53:44.546Z,99.8
2018-10-06T05:54:45.943Z,99.7
2018-10-06T05:55:47.326Z,98.9
2018-10-06T05:56:48.715Z,99.2
2018-10-06T05:57:50.112Z,99.2
2018-10-06T05:58:51.494Z,99.0
2018-10-06T05:59:52.888Z,99.3
2018-10-06T06:00:54.287Z,99.2
2018-10-06T06:01:55.673Z,99.2
2018-10-06T06:02:57.061Z,98.6
2018-10-06T06:03:58.457Z,98.9
2018-10-06T06:04:59.841Z,99.4
2018-10-06T06:06:01.229Z,99.4
2018-10-06T06:07:02.701Z,98.9
2018-10-06T06:08:04.097Z,99.0
2018-10-06T06:09:05.489Z,99.0
2018-10-06T06:10:06.874Z,99.5
2018-10-06T06:11:08.268Z,99.3
2018-10-06T06:12:09.657Z,98.8
2018-10-06T06:13:11.070Z,99.3
2018-10-06T06:14:12.459Z,99.5
2018-10-06T06:15:13.858Z,99.4
2018-10-06T06:16:15.248Z,99.4
2018-10-06T06:17:16.634Z,98.9
2018-10-06T06:18:18.039Z,98.9
2018-10-06T06:19:19.431Z,98.9
2018-10-06T06:20:20.822Z,99.0
2018-10-06T06:21:22.225Z,99.0
2018-10-06T06:22:23.603Z,99.4
2018-10-06T06:23:24.998Z,99.4
2018-10-06T06:24:26.386Z,99.3
2018-10-06T06:25:27.774Z,99.3
2018-10-06T06:26:29.161Z,99.1
2018-10-06T06:27:30.550Z,99.3
2018-10-06T06:28:31.941Z,99.3
2018-10-06T06:29:33.328Z,99.7
2018-10-06T06:30:34.735Z,99.0
2018-10-06T06:31:36.587Z,99.2
2018-10-06T06:32:37.977Z,99.2
2018-10-06T06:33:39.364Z,99.0
2018-10-06T06:34:40.756Z,99.1
2018-10-06T06:35:42.151Z,99.2
2018-10-06T06:36:43.561Z,99.4
2018-10-06T06:37:45.021Z,99.2
2018-10-06T06:38:47.297Z,99.0
2018-10-06T06:39:48.691Z,99.6
2018-10-06T06:40:50.080Z,99.4
2018-10-06T06:41:51.467Z,99.2
2018-10-06T06:42:52.866Z,100.0
2018-10-06T06:43:54.329Z,99.3
2018-10-06T06:44:55.651Z,99.1
2018-10-06T06:45:57.117Z,99.5
2018-10-06T06:46:58.508Z,99.1
2018-10-06T06:47:59.897Z,99.5
2018-10-06T06:49:01.319Z,99.6
2018-10-06T06:50:02.714Z,100.0
2018-10-06T06:51:04.984Z,100.0
2018-10-06T06:52:06.376Z,99.4
2018-10-06T06:53:07.769Z,99.6
2018-10-06T06:54:09.163Z,99.1
2018-10-06T06:55:10.591Z,99.5
2018-10-06T06:56:11.985Z,99.6
2018-10-06T06:57:13.374Z,99.5
2018-10-06T06:58:14.770Z,99.3
2018-10-06T06:59:16.168Z,100.0
2018-10-06T07:00:17.561Z,100.0
2018-10-06T07:01:18.972Z,99.9
2018-10-06T07:02:20.438Z,99.8
2018-10-06T07:03:22.723Z,99.6
2018-10-06T07:04:24.112Z,100.0
2018-10-06T07:05:25.507Z,100.0
2018-10-06T07:06:26.908Z,100.0
2018-10-06T07:07:28.299Z,100.0
2018-10-06T07:08:29.689Z,99.5
2018-10-06T07:09:31.081Z,99.6
2018-10-06T07:10:32.472Z,99.6
2018-10-06T07:11:33.862Z,99.6
2018-10-06T07:12:35.343Z,99.7
2018-10-06T07:13:36.688Z,99.6
2018-10-06T07:14:38.076Z,99.2
2018-10-06T07:15:39.470Z,99.5
2018-10-06T07:16:40.858Z,99.6
2018-10-06T07:17:42.248Z,99.0
2018-10-06T07:18:43.638Z,99.6
2018-10-06T07:19:45.034Z,99.4
2018-10-06T07:20:46.918Z,99.0
2018-10-06T07:21:48.324Z,99.1
2018-10-06T07:22:49.715Z,99.2
2018-10-06T07:23:51.102Z,99.2
2018-10-06T07:24:52.497Z,99.2
2018-10-06T07:25:53.890Z,99.2
2018-10-06T07:26:55.280Z,99.3
2018-10-06T07:27:56.673Z,99.2
2018-10-06T07:28:58.064Z,99.4
2018-10-06T07:29:59.452Z,99.5
2018-10-06T07:31:00.846Z,99.5
2018-10-06T07:32:02.234Z,100.0
2018-10-06T07:33:03.626Z,100.0
2018-10-06T07:34:05.020Z,99.7
2018-10-06T07:35:06.411Z,99.4
2018-10-06T07:36:07.800Z,98.8
2018-10-06T07:37:09.196Z,98.7
2018-10-06T07:38:10.589Z,98.0
2018-10-06T07:39:11.983Z,97.3
2018-10-06T07:40:13.376Z,97.6
2018-10-06T07:41:14.765Z,97.1
2018-10-06T07:42:16.163Z,97.0
2018-10-06T07:43:17.548Z,96.9
2018-10-06T07:44:18.947Z,96.8
2018-10-06T07:45:20.339Z,96.8
2018-10-06T07:46:21.742Z,97.2
2018-10-06T07:47:23.132Z,96.5
2018-10-06T07:48:24.547Z,96.1
2018-10-06T07:49:25.943Z,95.9
2018-10-06T07:50:27.351Z,96.5
2018-10-06T07:51:28.738Z,96.2
2018-10-06T07:52:30.132Z,95.8
2018-10-06T07:53:31.525Z,95.6
2018-10-06T07:54:32.966Z,95.6
2018-10-06T07:55:34.342Z,95.2
2018-10-06T07:56:35.740Z,95.2
2018-10-06T07:57:37.133Z,95.6
2018-10-06T07:58:38.525Z,95.9
2018-10-06T07:59:46.351Z,95.5
2018-10-06T08:00:50.772Z,95.7
2018-10-06T08:01:53.994Z,95.6
2018-10-06T08:02:56.195Z,95.5
2018-10-06T08:03:57.911Z,95.6
2018-10-06T08:05:02.793Z,95.9
2018-10-06T08:06:04.452Z,94.8
2018-10-06T08:07:07.730Z,94.6
2018-10-06T08:08:11.673Z,94.5
2018-10-06T08:09:13.395Z,95.0
2018-10-06T08:10:16.974Z,94.2
2018-10-06T08:11:19.080Z,93.4
2018-10-06T08:12:20.968Z,93.0
2018-10-06T08:13:22.716Z,91.4
2018-10-06T08:14:24.264Z,91.5
2018-10-06T08:15:25.801Z,90.9
2018-10-06T08:16:28.301Z,90.1
2018-10-06T08:17:29.972Z,90.0
2018-10-06T08:18:31.698Z,89.5
2018-10-06T08:19:33.535Z,89.2
2018-10-06T08:20:35.283Z,88.5
2018-10-06T08:21:36.916Z,87.9
2018-10-06T08:22:38.621Z,88.7
2018-10-06T08:23:41.637Z,88.0
2018-10-06T08:24:43.252Z,88.0
2018-10-06T08:25:45.216Z,88.2
2018-10-06T08:26:46.687Z,87.2
2018-10-06T08:27:48.342Z,86.6
2018-10-06T08:28:50.157Z,86.3
2018-10-06T08:29:51.723Z,86.1
2018-10-06T08:30:53.473Z,86.5
2018-10-06T08:31:54.977Z,85.8
2018-10-06T08:32:56.455Z,85.6
2018-10-06T08:33:57.974Z,85.2
2018-10-06T08:34:59.497Z,85.4
2018-10-06T08:36:01.034Z,84.9
2018-10-06T08:37:02.743Z,85.1
2018-10-06T08:38:04.185Z,85.0
2018-10-06T08:39:05.688Z,84.0
2018-10-06T08:40:07.145Z,83.7
2018-10-06T08:41:08.611Z,83.7
2018-10-06T08:42:10.124Z,83.4
2018-10-06T08:43:11.631Z,83.4
2018-10-06T08:44:13.117Z,83.3
2018-10-06T08:45:14.546Z,82.7
2018-10-06T08:46:16.000Z,82.1
2018-10-06T08:47:17.598Z,82.8
2018-10-06T08:48:19.137Z,82.2
2018-10-06T08:49:20.638Z,81.0
2018-10-06T08:50:22.280Z,81.1
2018-10-06T08:51:23.749Z,81.3
2018-10-06T08:52:25.270Z,81.0
2018-10-06T08:53:26.744Z,81.2
2018-10-06T08:54:28.264Z,80.4
2018-10-06T08:55:29.917Z,79.1
2018-10-06T08:56:31.606Z,78.5
2018-10-06T08:57:33.344Z,78.9
2018-10-06T08:58:36.520Z,78.6
2018-10-06T08:59:38.309Z,78.5
2018-10-06T09:00:39.834Z,79.1
2018-10-06T09:01:42.905Z,78.1
2018-10-06T09:02:44.623Z,77.8
2018-10-06T09:03:46.202Z,76.9
2018-10-06T09:04:47.760Z,77.0
2018-10-06T09:05:49.489Z,76.6
2018-10-06T09:06:52.139Z,76.1
2018-10-06T09:07:53.699Z,75.8
2018-10-06T09:08:55.446Z,74.7
2018-10-06T09:09:56.968Z,74.3
2018-10-06T09:10:58.490Z,73.2
2018-10-06T09:12:00.130Z,72.9
2018-10-06T09:13:01.916Z,73.0
2018-10-06T09:14:03.327Z,72.7
2018-10-06T09:15:04.751Z,72.2
2018-10-06T09:16:06.178Z,71.6
2018-10-06T09:17:08.524Z,69.8
2018-10-06T09:18:10.088Z,67.9
2018-10-06T09:19:11.517Z,66.7
2018-10-06T09:20:12.961Z,64.1
2018-10-06T09:21:14.464Z,62.2
2018-10-06T09:22:15.945Z,61.7
2018-10-06T09:23:17.374Z,61.2
2018-10-06T09:24:18.777Z,60.8
2018-10-06T09:25:20.176Z,58.8
2018-10-06T09:26:21.576Z,56.8
2018-10-06T09:27:22.981Z,55.3
2018-10-06T09:28:24.397Z,53.4
2018-10-06T09:29:25.792Z,53.1
2018-10-06T09:30:27.201Z,52.1
2018-10-06T09:31:28.604Z,52.0
2018-10-06T09:32:30.004Z,50.4
2018-10-06T09:33:31.407Z,50.8
2018-10-06T09:34:32.818Z,51.3
2018-10-06T09:35:34.228Z,50.6
2018-10-06T09:36:35.630Z,51.5
2018-10-06T09:37:37.040Z,49.2
2018-10-06T09:38:38.442Z,47.2
2018-10-06T09:39:39.841Z,46.5
2018-10-06T09:40:41.242Z,44.5
2018-10-06T09:41:42.658Z,43.6
2018-10-06T09:42:44.199Z,42.4
2018-10-06T09:43:45.471Z,40.6
2018-10-06T09:44:47.648Z,38.9
2018-10-06T09:45:49.032Z,38.3
2018-10-06T09:46:50.465Z,37.8
2018-10-06T09:47:51.885Z,36.3
2018-10-06T09:48:53.298Z,37.2
2018-10-06T09:49:54.704Z,36.9
2018-10-06T09:50:56.119Z,34.4
2018-10-06T09:51:57.529Z,34.6
2018-10-06T09:52:58.936Z,35.8
2018-10-06T09:54:00.357Z,36.1
2018-10-06T09:55:01.761Z,36.6
2018-10-06T09:56:03.178Z,36.8
2018-10-06T09:57:04.587Z,36.4
2018-10-06T09:58:05.995Z,35.4
2018-10-06T09:59:07.404Z,33.9
2018-10-06T10:00:08.814Z,34.5
2018-10-06T10:01:10.224Z,33.9
2018-10-06T10:02:11.630Z,32.6
2018-10-06T10:03:13.045Z,32.3
2018-10-06T10:04:14.456Z,31.8
2018-10-06T10:05:16.109Z,29.4
2018-10-06T10:06:17.498Z,30.8
2018-10-06T10:07:18.921Z,29.2
2018-10-06T10:08:20.364Z,29.4
2018-10-06T10:09:21.783Z,29.5
2018-10-06T10:10:23.204Z,29.5
2018-10-06T10:11:24.621Z,32.0
2018-10-06T10:12:26.070Z,33.9
2018-10-06T10:13:27.444Z,33.4
2018-10-06T10:14:28.861Z,33.1
2018-10-06T10:15:30.326Z,32.6
2018-10-06T10:16:31.680Z,31.3
2018-10-06T10:17:33.154Z,31.1
2018-10-06T10:18:34.511Z,30.6
2018-10-06T10:19:35.927Z,29.2
2018-10-06T10:20:37.339Z,28.8
2018-10-06T10:21:38.761Z,29.3
2018-10-06T10:22:40.252Z,29.2
2018-10-06T10:23:41.637Z,28.9
2018-10-06T10:24:42.957Z,29.0
2018-10-06T10:25:44.613Z,28.8
2018-10-06T10:26:46.012Z,29.4
2018-10-06T10:27:47.449Z,29.3
2018-10-06T10:28:48.936Z,28.1
2018-10-06T10:29:50.453Z,27.0
2018-10-06T10:30:52.407Z,27.6
2018-10-06T10:31:54.025Z,29.0
2018-10-06T10:32:55.642Z,28.4
2018-10-06T10:33:57.308Z,28.3
2018-10-06T10:34:58.911Z,28.9
2018-10-06T10:36:00.581Z,28.9
2018-10-06T10:37:02.544Z,28.6
2018-10-06T10:38:04.287Z,28.2
2018-10-06T10:39:06.050Z,29.3
2018-10-06T10:40:07.843Z,30.4
2018-10-06T10:41:09.630Z,29.4
2018-10-06T10:42:11.457Z,28.7
2018-10-06T10:43:13.447Z,28.9
2018-10-06T10:44:15.118Z,29.3
2018-10-06T10:45:16.842Z,29.6
2018-10-06T10:46:18.361Z,29.5
2018-10-06T10:47:19.931Z,30.7
2018-10-06T10:48:21.708Z,32.4
2018-10-06T10:49:23.214Z,33.1
2018-10-06T10:50:24.753Z,33.8
2018-10-06T10:51:27.183Z,34.9
2018-10-06T10:52:29.864Z,34.3
2018-10-06T10:53:31.593Z,35.4
2018-10-06T10:54:34.359Z,36.5
2018-10-06T10:55:36.023Z,36.4
2018-10-06T10:56:37.702Z,36.8
2018-10-06T10:57:40.298Z,37.5
2018-10-06T10:58:41.964Z,37.4
2018-10-06T10:59:44.719Z,37.9
2018-10-06T11:00:46.301Z,37.2
2018-10-06T11:01:48.002Z,38.3
2018-10-06T11:02:50.418Z,39.3
2018-10-06T11:03:52.262Z,39.1
2018-10-06T11:04:54.197Z,39.0
2018-10-06T11:05:56.033Z,39.6
2018-10-06T11:06:57.827Z,39.4
2018-10-06T11:07:59.652Z,39.8
2018-10-06T11:09:01.350Z,38.8
2018-10-06T11:10:03.188Z,39.5
2018-10-06T11:11:05.039Z,39.8
2018-10-06T11:12:06.953Z,39.9
2018-10-06T11:13:08.830Z,39.6
2018-10-06T11:14:10.600Z,39.1
2018-10-06T11:15:12.396Z,39.6
2018-10-06T11:16:14.194Z,39.6
2018-10-06T11:17:16.296Z,39.7
2018-10-06T11:18:18.290Z,39.7
2018-10-06T11:19:20.450Z,40.0
2018-10-06T11:20:23.668Z,40.0
2018-10-06T11:21:26.763Z,40.7
2018-10-06T11:22:29.608Z,41.3
2018-10-06T11:23:31.876Z,41.0
2018-10-06T11:24:34.092Z,41.0
2018-10-06T11:25:36.340Z,41.4
2018-10-06T11:26:38.332Z,41.2
2018-10-06T11:27:40.804Z,41.7
2018-10-06T11:28:44.067Z,42.4
2018-10-06T11:29:46.200Z,42.4
2018-10-06T11:30:49.760Z,42.7
2018-10-06T11:31:51.533Z,42.4
2018-10-06T11:32:54.471Z,43.1
2018-10-06T11:33:57.031Z,42.7
2018-10-06T11:34:59.330Z,43.1
2018-10-06T11:36:01.676Z,43.1
2018-10-06T11:37:03.491Z,42.6
2018-10-06T11:38:05.153Z,42.7
2018-10-06T11:39:06.882Z,42.6
2018-10-06T11:40:08.689Z,43.1
2018-10-06T11:41:10.279Z,42.5
2018-10-06T11:42:12.017Z,42.3
2018-10-06T11:43:13.701Z,42.6
2018-10-06T11:44:15.277Z,43.1
2018-10-06T11:45:17.222Z,42.3
2018-10-06T11:46:19.370Z,41.8
2018-10-06T11:47:23.460Z,42.2
2018-10-06T11:48:26.750Z,43.2
2018-10-06T11:49:31.947Z,43.0
2018-10-06T11:50:35.333Z,42.7
2018-10-06T11:51:38.810Z,42.4
2018-10-06T11:52:41.820Z,42.6
2018-10-06T11:53:43.780Z,41.9
2018-10-06T11:54:47.487Z,42.5
2018-10-06T11:55:50.870Z,42.5
2018-10-06T11:56:54.849Z,42.1
2018-10-06T11:57:57.651Z,42.4
2018-10-06T11:58:59.671Z,42.3
2018-10-06T12:00:01.747Z,42.3
2018-10-06T12:01:03.385Z,42.0
2018-10-06T12:02:05.675Z,42.5
2018-10-06T12:03:08.342Z,42.6
2018-10-06T12:04:10.185Z,42.1
2018-10-06T12:05:12.367Z,41.8
2018-10-06T12:06:15.150Z,41.6
2018-10-06T12:07:17.860Z,42.1
2018-10-06T12:08:20.040Z,42.1
2018-10-06T12:09:24.043Z,41.8
2018-10-06T12:10:27.142Z,41.7
2018-10-06T12:11:30.683Z,41.5
2018-10-06T12:12:33.687Z,41.8
2018-10-06T12:13:36.645Z,41.8
2018-10-06T12:14:39.499Z,42.0
2018-10-06T12:15:41.959Z,41.6
2018-10-06T12:16:43.466Z,41.3
2018-10-06T12:17:44.957Z,41.2
2018-10-06T12:18:46.467Z,41.1
2018-10-06T12:19:48.505Z,42.0
2018-10-06T12:20:49.957Z,42.1
2018-10-06T12:21:51.718Z,42.3
2018-10-06T12:22:53.240Z,42.0
2018-10-06T12:23:54.659Z,42.5
2018-10-06T12:24:56.055Z,43.5
2018-10-06T12:25:57.509Z,43.5
2018-10-06T12:26:58.891Z,43.0
2018-10-06T12:28:00.287Z,42.8
2018-10-06T12:29:01.691Z,43.7
2018-10-06T12:30:03.089Z,44.1
2018-10-06T12:31:04.496Z,44.3
2018-10-06T12:32:05.900Z,44.6
2018-10-06T12:33:07.297Z,44.9
2018-10-06T12:34:08.698Z,45.2
2018-10-06T12:35:10.132Z,45.3
2018-10-06T12:36:11.502Z,45.5
2018-10-06T12:37:12.899Z,45.4
2018-10-06T12:38:14.300Z,46.1
2018-10-06T12:39:15.703Z,46.2
2018-10-06T12:40:17.126Z,45.4
2018-10-06T12:41:18.555Z,45.5
2018-10-06T12:42:20.032Z,46.1
2018-10-06T12:43:21.355Z,46.1
2018-10-06T12:44:22.756Z,46.1
2018-10-06T12:45:24.157Z,46.6
2018-10-06T12:46:25.554Z,46.4
2018-10-06T12:47:26.953Z,46.1
2018-10-06T12:48:28.408Z,46.2
2018-10-06T12:49:29.808Z,45.7
2018-10-06T12:50:31.225Z,46.0
2018-10-06T12:51:32.731Z,46.3
2018-10-06T12:52:34.024Z,45.9
2018-10-06T12:53:36.183Z,46.1
2018-10-06T12:54:37.547Z,46.1
2018-10-06T12:55:38.948Z,46.0
2018-10-06T12:56:40.349Z,45.3
2018-10-06T12:57:41.747Z,45.4
2018-10-06T12:58:43.199Z,44.8
2018-10-06T12:59:44.546Z,44.8
2018-10-06T13:00:45.945Z,45.4
2018-10-06T13:01:47.342Z,45.0
2018-10-06T13:02:48.742Z,44.1
2018-10-06T13:03:50.147Z,43.9
2018-10-06T13:04:51.550Z,44.7
2018-10-06T13:05:52.959Z,44.5
2018-10-06T13:06:54.387Z,44.4
2018-10-06T13:07:55.816Z,43.9
2018-10-06T13:08:57.215Z,43.7
2018-10-06T13:09:58.611Z,43.7
2018-10-06T13:11:00.015Z,43.6
2018-10-06T13:12:01.460Z,43.9
2018-10-06T13:13:02.815Z,44.1
2018-10-06T13:14:04.213Z,43.5
2018-10-06T13:15:05.613Z,43.5
2018-10-06T13:16:07.016Z,43.6
2018-10-06T13:17:08.422Z,42.8
2018-10-06T13:18:09.825Z,42.4
2018-10-06T13:19:11.223Z,42.4
2018-10-06T13:20:12.625Z,42.6
2018-10-06T13:21:14.027Z,42.7
2018-10-06T13:22:15.429Z,43.0
2018-10-06T13:23:16.821Z,42.9
2018-10-06T13:24:18.221Z,42.3
2018-10-06T13:25:19.623Z,42.4
2018-10-06T13:26:21.025Z,42.4
2018-10-06T13:27:22.425Z,42.9
2018-10-06T13:28:23.830Z,43.1
2018-10-06T13:29:25.225Z,43.1
2018-10-06T13:30:26.654Z,42.5
2018-10-06T13:31:28.057Z,42.7
2018-10-06T13:32:29.453Z,43.1
2018-10-06T13:33:30.849Z,42.8
2018-10-06T13:34:32.341Z,42.5
2018-10-06T13:35:33.749Z,42.7
2018-10-06T13:36:35.142Z,42.6
2018-10-06T13:37:36.546Z,42.8